Time;durP1;ratioP1;P1;durP2;ratioP2;P2;SDS_P1;SDS_P2;PMS_P1;PMS_P2;Temp;Humidity;BMP_temperature;BMP_pressure;BME280_temperature;BME280_humidity;BME280_pressure;Samples;Min_cycle;Max_cycle;Signal;HPM_P1;HPM_P2
2022/07/13 00:01:18;;;;;;;1999.90;999.90;;;;;;;;;;5093967;27;20395;-72
2022/07/13 00:03:46;;;;;;;1999.90;999.90;;;;;;;;;;5094713;27;20765;-74
2022/07/13 00:06:14;;;;;;;1999.90;999.90;;;;;;;;;;5089551;27;20418;-73
2022/07/13 00:08:41;;;;;;;1999.90;999.90;;;;;;;;;;5089361;27;20414;-73
2022/07/13 00:11:09;;;;;;;1999.90;999.90;;;;;;;;;;5090176;27;20486;-74
2022/07/13 00:13:39;;;;;;;1999.90;999.90;;;;;;;;;;5090397;27;20500;-73
2022/07/13 00:16:06;;;;;;;1999.90;999.90;;;;;;;;;;5106772;27;20415;-73
2022/07/13 00:18:34;;;;;;;1999.90;999.90;;;;;;;;;;5093149;27;20399;-74
2022/07/13 00:21:02;;;;;;;1999.90;999.90;;;;;;;;;;5092602;27;21323;-74
2022/07/13 00:23:30;;;;;;;1999.90;999.90;;;;;;;;;;5093203;27;20399;-73
2022/07/13 00:25:58;;;;;;;1999.90;999.90;;;;;;;;;;5094805;27;20406;-74
2022/07/13 00:28:25;;;;;;;1999.90;999.90;;;;;;;;;;5090003;27;20465;-73
2022/07/13 00:30:55;;;;;;;1999.90;999.90;;;;;;;;;;5110301;27;20399;-73
2022/07/13 00:33:22;;;;;;;1999.90;999.90;;;;;;;;;;5112442;27;21257;-73
2022/07/13 00:35:50;;;;;;;1999.90;999.90;;;;;;;;;;5074074;28;20697;-73
2022/07/13 00:38:18;;;;;;;1999.90;999.90;;;;;;;;;;5092696;27;20575;-73
2022/07/13 00:40:45;;;;;;;1999.90;999.90;;;;;;;;;;5072491;28;20433;-73
2022/07/13 00:43:13;;;;;;;1999.90;999.90;;;;;;;;;;5087393;27;20407;-72
2022/07/13 00:45:41;;;;;;;1999.90;999.90;;;;;;;;;;5086352;27;20943;-73
2022/07/13 00:48:11;;;;;;;1999.90;999.90;;;;;;;;;;5087476;27;20498;-72
2022/07/13 00:50:39;;;;;;;1999.90;999.90;;;;;;;;;;5103744;27;20404;-72
2022/07/13 00:53:06;;;;;;;1999.90;999.90;;;;;;;;;;5086326;27;21273;-73
2022/07/13 00:55:34;;;;;;;1999.90;999.90;;;;;;;;;;5086760;27;20411;-74
2022/07/13 00:58:02;;;;;;;1999.90;999.90;;;;;;;;;;5089655;27;20464;-72
2022/07/13 01:00:30;;;;;;;1999.90;999.90;;;;;;;;;;5091847;27;21135;-72
2022/07/13 01:02:58;;;;;;;1999.90;999.90;;;;;;;;;;5090741;27;20407;-73
2022/07/13 01:05:27;;;;;;;1999.90;999.90;;;;;;;;;;5076149;28;20474;-73
2022/07/13 01:07:55;;;;;;;1999.90;999.90;;;;;;;;;;5107043;27;20408;-74
2022/07/13 01:10:23;;;;;;;1999.90;999.90;;;;;;;;;;5091960;27;20399;-73
2022/07/13 01:12:52;;;;;;;1999.90;999.90;;;;;;;;;;5089712;27;20411;-73
2022/07/13 01:15:21;;;;;;;1999.90;999.90;;;;;;;;;;5074505;28;20411;-73
2022/07/13 01:17:50;;;;;;;1999.90;999.90;;;;;;;;;;5093670;27;20410;-73
2022/07/13 01:20:18;;;;;;;1999.90;999.90;;;;;;;;;;5089133;27;21204;-72
2022/07/13 01:22:48;;;;;;;1999.90;999.90;;;;;;;;;;5090521;27;20476;-73
2022/07/13 01:25:18;;;;;;;1999.90;999.90;;;;;;;;;;5090419;27;20357;-73
2022/07/13 01:27:47;;;;;;;1999.90;999.90;;;;;;;;;;5093759;27;20418;-72
2022/07/13 01:30:15;;;;;;;1999.90;999.90;;;;;;;;;;5090814;27;21308;-73
2022/07/13 01:32:47;;;;;;;1999.90;999.90;;;;;;;;;;5094381;27;20387;-73
2022/07/13 01:35:15;;;;;;;1999.90;999.90;;;;;;;;;;5090221;27;20387;-73
2022/07/13 01:37:43;;;;;;;1999.90;999.90;;;;;;;;;;5072383;28;20407;-73
2022/07/13 01:40:12;;;;;;;1999.90;999.90;;;;;;;;;;5088691;27;20415;-74
2022/07/13 01:42:42;;;;;;;1999.90;999.90;;;;;;;;;;5091993;27;20411;-73
2022/07/13 01:45:11;;;;;;;1999.90;999.90;;;;;;;;;;5093083;27;20640;-73
2022/07/13 01:47:39;;;;;;;1999.90;999.90;;;;;;;;;;5077120;28;20403;-73
2022/07/13 01:50:07;;;;;;;1999.90;999.90;;;;;;;;;;5089633;27;20395;-72
2022/07/13 01:52:35;;;;;;;1999.90;999.90;;;;;;;;;;5094138;27;20546;-72
2022/07/13 01:55:03;;;;;;;1999.90;999.90;;;;;;;;;;5075637;28;20457;-72
2022/07/13 01:57:31;;;;;;;1999.90;999.90;;;;;;;;;;5093622;27;20403;-72
2022/07/13 02:00:01;;;;;;;1999.90;999.90;;;;;;;;;;5090222;27;20407;-73
2022/07/13 02:02:38;;;;;;;1999.90;999.90;;;;;;;;;;5088890;27;20504;-72
2022/07/13 02:05:10;;;;;;;1999.90;999.90;;;;;;;;;;5070890;27;20404;-72
2022/07/13 02:07:40;;;;;;;1999.90;999.90;;;;;;;;;;5073669;27;20534;-72
2022/07/13 02:10:09;;;;;;;1999.90;999.90;;;;;;;;;;5071489;27;20867;-73
2022/07/13 02:12:38;;;;;;;1999.90;999.90;;;;;;;;;;5073467;27;21345;-72
2022/07/13 02:15:09;;;;;;;1999.90;999.90;;;;;;;;;;5070947;28;20411;-72
2022/07/13 02:17:38;;;;;;;1999.90;999.90;;;;;;;;;;5091301;27;20419;-72
2022/07/13 02:20:07;;;;;;;1999.90;999.90;;;;;;;;;;5088952;27;20515;-73
2022/07/13 02:22:42;;;;;;;1999.90;999.90;;;;;;;;;;5091016;27;20375;-74
2022/07/13 02:25:10;;;;;;;1999.90;999.90;;;;;;;;;;5108031;27;20399;-72
2022/07/13 02:27:39;;;;;;;1999.90;999.90;;;;;;;;;;5076699;28;21168;-72
2022/07/13 02:30:10;;;;;;;1999.90;999.90;;;;;;;;;;5091729;27;20403;-72
2022/07/13 02:32:38;;;;;;;1999.90;999.90;;;;;;;;;;5092000;27;20423;-72
2022/07/13 02:35:07;;;;;;;1999.90;999.90;;;;;;;;;;5074742;27;20913;-73
2022/07/13 02:37:36;;;;;;;1999.90;999.90;;;;;;;;;;5090460;27;20983;-73
2022/07/13 02:40:04;;;;;;;1999.90;999.90;;;;;;;;;;5075632;27;20449;-72
2022/07/13 02:42:32;;;;;;;1999.90;999.90;;;;;;;;;;5088211;27;20383;-72
2022/07/13 02:45:00;;;;;;;1999.90;999.90;;;;;;;;;;5086870;27;21031;-72
2022/07/13 02:47:29;;;;;;;1999.90;999.90;;;;;;;;;;5110085;27;20403;-72
2022/07/13 02:49:59;;;;;;;1999.90;999.90;;;;;;;;;;5075218;28;20390;-72
2022/07/13 02:52:27;;;;;;;1999.90;999.90;;;;;;;;;;5075007;28;20382;-72
2022/07/13 02:54:54;;;;;;;1999.90;999.90;;;;;;;;;;5075941;28;20410;-73
2022/07/13 02:57:22;;;;;;;1999.90;999.90;;;;;;;;;;5075300;28;20860;-72
2022/07/13 02:59:54;;;;;;;1999.90;999.90;;;;;;;;;;5068155;27;21330;-73
2022/07/13 03:02:22;;;;;;;1999.90;999.90;;;;;;;;;;5072712;28;20401;-73
2022/07/13 03:04:51;;;;;;;1999.90;999.90;;;;;;;;;;5095162;27;20439;-73
2022/07/13 03:07:19;;;;;;;1999.90;999.90;;;;;;;;;;5074981;27;20426;-73
2022/07/13 03:09:47;;;;;;;1999.90;999.90;;;;;;;;;;5098366;27;20407;-73
2022/07/13 03:12:20;;;;;;;1999.90;999.90;;;;;;;;;;5075334;27;20496;-73
2022/07/13 03:14:49;;;;;;;1999.90;999.90;;;;;;;;;;5095200;27;20391;-73
2022/07/13 03:17:17;;;;;;;1999.90;999.90;;;;;;;;;;5079822;27;20879;-74
2022/07/13 03:19:45;;;;;;;1999.90;999.90;;;;;;;;;;5096256;27;20470;-73
2022/07/13 03:22:15;;;;;;;1999.90;999.90;;;;;;;;;;5078323;28;20764;-73
2022/07/13 03:24:43;;;;;;;1999.90;999.90;;;;;;;;;;5094435;27;20410;-73
2022/07/13 03:27:16;;;;;;;1999.90;999.90;;;;;;;;;;5080821;28;20914;-73
2022/07/13 03:29:44;;;;;;;1999.90;999.90;;;;;;;;;;5078303;27;20395;-73
2022/07/13 03:32:12;;;;;;;1999.90;999.90;;;;;;;;;;5098288;27;20504;-73
2022/07/13 03:34:39;;;;;;;1999.90;999.90;;;;;;;;;;5096217;27;20408;-73
2022/07/13 03:37:07;;;;;;;1999.90;999.90;;;;;;;;;;5109525;27;20396;-73
2022/07/13 03:39:38;;;;;;;1999.90;999.90;;;;;;;;;;5079266;28;20790;-73
2022/07/13 03:42:08;;;;;;;1999.90;999.90;;;;;;;;;;5079174;28;20395;-72
2022/07/13 03:44:36;;;;;;;1999.90;999.90;;;;;;;;;;5095271;27;20493;-73
2022/07/13 03:47:04;;;;;;;1999.90;999.90;;;;;;;;;;5079189;27;20399;-72
2022/07/13 03:49:32;;;;;;;1999.90;999.90;;;;;;;;;;5098998;27;20835;-72
2022/07/13 03:52:00;;;;;;;1999.90;999.90;;;;;;;;;;5090585;27;20422;-73
2022/07/13 03:54:28;;;;;;;1999.90;999.90;;;;;;;;;;5077546;28;21176;-72
2022/07/13 03:56:57;;;;;;;1999.90;999.90;;;;;;;;;;5096512;27;20406;-71
2022/07/13 03:59:25;;;;;;;1999.90;999.90;;;;;;;;;;5116052;27;20394;-72
2022/07/13 04:01:53;;;;;;;1999.90;999.90;;;;;;;;;;5095647;27;20399;-73
2022/07/13 04:04:21;;;;;;;1999.90;999.90;;;;;;;;;;5096822;27;20444;-73
2022/07/13 04:06:50;;;;;;;1999.90;999.90;;;;;;;;;;5096576;27;20872;-71
2022/07/13 04:09:18;;;;;;;1999.90;999.90;;;;;;;;;;5077447;28;20399;-71
2022/07/13 04:11:47;;;;;;;1999.90;999.90;;;;;;;;;;5077116;28;20413;-70
2022/07/13 04:14:16;;;;;;;1999.90;999.90;;;;;;;;;;5090851;27;20449;-71
2022/07/13 04:16:44;;;;;;;1999.90;999.90;;;;;;;;;;5089669;27;20454;-71
2022/07/13 04:19:12;;;;;;;1999.90;999.90;;;;;;;;;;5076840;27;20457;-72
2022/07/13 04:21:40;;;;;;;1999.90;999.90;;;;;;;;;;5090246;27;20403;-72
2022/07/13 04:24:11;;;;;;;1999.90;999.90;;;;;;;;;;5074569;28;20387;-71
2022/07/13 04:26:38;;;;;;;1999.90;999.90;;;;;;;;;;5075022;27;20413;-71
2022/07/13 04:29:06;;;;;;;1999.90;999.90;;;;;;;;;;5090010;27;20387;-72
2022/07/13 04:31:35;;;;;;;1999.90;999.90;;;;;;;;;;5074164;27;21832;-71
2022/07/13 04:34:03;;;;;;;1999.90;999.90;;;;;;;;;;5076689;28;20449;-72
2022/07/13 04:36:31;;;;;;;1999.90;999.90;;;;;;;;;;5108805;27;22181;-71
2022/07/13 04:38:59;;;;;;;1999.90;999.90;;;;;;;;;;5075708;28;20432;-72
2022/07/13 04:41:27;;;;;;;1999.90;999.90;;;;;;;;;;5090544;27;21550;-71
2022/07/13 04:43:55;;;;;;;1999.90;999.90;;;;;;;;;;5091607;27;20452;-70
2022/07/13 04:46:24;;;;;;;1999.90;999.90;;;;;;;;;;5075952;27;20457;-71
2022/07/13 04:48:54;;;;;;;1999.90;999.90;;;;;;;;;;5074875;28;20466;-71
2022/07/13 04:51:22;;;;;;;1999.90;999.90;;;;;;;;;;5067206;27;20411;-72
2022/07/13 04:53:51;;;;;;;1999.90;999.90;;;;;;;;;;5069134;27;20810;-71
2022/07/13 04:56:18;;;;;;;1999.90;999.90;;;;;;;;;;5091254;27;20395;-72
2022/07/13 04:58:46;;;;;;;1999.90;999.90;;;;;;;;;;5094989;27;20893;-69
2022/07/13 05:01:14;;;;;;;1999.90;999.90;;;;;;;;;;5093081;27;20393;-69
2022/07/13 05:03:56;;;;;;;1999.90;999.90;;;;;;;;;;5088930;27;20508;-75
2022/07/13 05:06:24;;;;;;;1999.90;999.90;;;;;;;;;;5083490;27;20403;-74
2022/07/13 05:08:53;;;;;;;1999.90;999.90;;;;;;;;;;5070080;28;20897;-75
2022/07/13 05:11:21;;;;;;;1999.90;999.90;;;;;;;;;;5081548;27;20558;-75
2022/07/13 05:13:49;;;;;;;1999.90;999.90;;;;;;;;;;5106266;27;20412;-76
2022/07/13 05:16:18;;;;;;;1999.90;999.90;;;;;;;;;;5085304;27;20498;-75
2022/07/13 05:18:47;;;;;;;1999.90;999.90;;;;;;;;;;5085243;27;20417;-76
2022/07/13 05:21:21;;;;;;;1999.90;999.90;;;;;;;;;;5100148;27;20848;-73
2022/07/13 05:23:50;;;;;;;1999.90;999.90;;;;;;;;;;5088616;27;20403;-74
2022/07/13 05:26:18;;;;;;;1999.90;999.90;;;;;;;;;;5090637;27;20386;-74
2022/07/13 05:28:45;;;;;;;1999.90;999.90;;;;;;;;;;5086815;27;20398;-69
2022/07/13 05:31:16;;;;;;;1999.90;999.90;;;;;;;;;;5070493;27;20415;-74
2022/07/13 05:33:44;;;;;;;1999.90;999.90;;;;;;;;;;5076862;28;20400;-73
2022/07/13 05:36:21;;;;;;;1999.90;999.90;;;;;;;;;;5072535;27;20399;-73
2022/07/13 05:38:49;;;;;;;1999.90;999.90;;;;;;;;;;5090445;27;20406;-71
2022/07/13 05:41:17;;;;;;;1999.90;999.90;;;;;;;;;;5077259;27;20903;-72
2022/07/13 05:43:45;;;;;;;1999.90;999.90;;;;;;;;;;5096230;27;20415;-75
2022/07/13 05:46:14;;;;;;;1999.90;999.90;;;;;;;;;;5078896;28;20514;-74
2022/07/13 05:48:42;;;;;;;1999.90;999.90;;;;;;;;;;5097477;27;20386;-73
2022/07/13 05:51:09;;;;;;;1999.90;999.90;;;;;;;;;;5097351;27;20414;-71
2022/07/13 05:53:59;;;;;;;1999.90;999.90;;;;;;;;;;5094325;27;20403;-71
2022/07/13 05:56:47;;;;;;;1999.90;999.90;;;;;;;;;;5096202;27;20446;-72
2022/07/13 05:59:15;;;;;;;1999.90;999.90;;;;;;;;;;5097368;27;22002;-75
2022/07/13 06:01:43;;;;;;;1999.90;999.90;;;;;;;;;;5077935;28;20436;-72
2022/07/13 06:04:11;;;;;;;1999.90;999.90;;;;;;;;;;5091964;27;20922;-73
2022/07/13 06:06:38;;;;;;;1999.90;999.90;;;;;;;;;;5089802;27;21589;-71
2022/07/13 06:09:07;;;;;;;1999.90;999.90;;;;;;;;;;5095398;27;20403;-71
2022/07/13 06:11:35;;;;;;;1999.90;999.90;;;;;;;;;;5094004;27;20391;-71
2022/07/13 06:14:03;;;;;;;1999.90;999.90;;;;;;;;;;5096223;27;20394;-71
2022/07/13 06:16:33;;;;;;;1999.90;999.90;;;;;;;;;;5079657;28;20411;-73
2022/07/13 06:19:01;;;;;;;1999.90;999.90;;;;;;;;;;5080770;27;20384;-72
2022/07/13 06:21:29;;;;;;;1999.90;999.90;;;;;;;;;;5092322;27;21500;-73
2022/07/13 06:23:57;;;;;;;1999.90;999.90;;;;;;;;;;5108673;27;20395;-73
2022/07/13 06:26:26;;;;;;;1999.90;999.90;;;;;;;;;;5093151;27;20399;-73
2022/07/13 06:28:54;;;;;;;1999.90;999.90;;;;;;;;;;5094625;27;20403;-72
2022/07/13 06:31:23;;;;;;;1999.90;999.90;;;;;;;;;;5093617;27;21268;-73
2022/07/13 06:33:52;;;;;;;1999.90;999.90;;;;;;;;;;5104159;27;20407;-73
2022/07/13 06:36:20;;;;;;;1999.90;999.90;;;;;;;;;;5094165;27;20410;-73
2022/07/13 06:38:49;;;;;;;1999.90;999.90;;;;;;;;;;5095259;27;20905;-72
2022/07/13 06:41:17;;;;;;;1999.90;999.90;;;;;;;;;;5095212;27;20441;-72
2022/07/13 06:43:46;;;;;;;1999.90;999.90;;;;;;;;;;5097330;27;21181;-74
2022/07/13 06:46:14;;;;;;;1999.90;999.90;;;;;;;;;;5098584;27;20414;-73
2022/07/13 06:48:42;;;;;;;1999.90;999.90;;;;;;;;;;5097077;27;20909;-74
2022/07/13 06:51:09;;;;;;;1999.90;999.90;;;;;;;;;;5092553;27;20413;-74
2022/07/13 06:53:37;;;;;;;1999.90;999.90;;;;;;;;;;5088702;27;20456;-76
2022/07/13 06:56:05;;;;;;;1999.90;999.90;;;;;;;;;;5093237;27;20778;-74
2022/07/13 06:58:33;;;;;;;1999.90;999.90;;;;;;;;;;5111524;27;20398;-74
2022/07/13 07:01:02;;;;;;;1999.90;999.90;;;;;;;;;;5069958;27;20505;-74
2022/07/13 07:03:30;;;;;;;1999.90;999.90;;;;;;;;;;5091742;27;20884;-74
2022/07/13 07:05:58;;;;;;;1999.90;999.90;;;;;;;;;;5096504;27;20415;-74
2022/07/13 07:08:26;;;;;;;1999.90;999.90;;;;;;;;;;5083554;27;20399;-75
2022/07/13 07:10:53;;;;;;;1999.90;999.90;;;;;;;;;;5110296;27;20399;-74
2022/07/13 07:13:21;;;;;;;1999.90;999.90;;;;;;;;;;5098878;27;20411;-74
2022/07/13 07:15:49;;;;;;;1999.90;999.90;;;;;;;;;;5097015;27;20423;-75
2022/07/13 07:18:21;;;;;;;1999.90;999.90;;;;;;;;;;5098247;27;20383;-75
2022/07/13 07:20:49;;;;;;;1999.90;999.90;;;;;;;;;;5097391;27;20388;-74
2022/07/13 07:23:17;;;;;;;1999.90;999.90;;;;;;;;;;5096908;27;20399;-74
2022/07/13 07:25:45;;;;;;;1999.90;999.90;;;;;;;;;;5080067;27;20470;-74
2022/07/13 07:28:13;;;;;;;1999.90;999.90;;;;;;;;;;5097891;27;20380;-74
2022/07/13 07:30:41;;;;;;;1999.90;999.90;;;;;;;;;;5097066;27;20948;-75
2022/07/13 07:33:09;;;;;;;1999.90;999.90;;;;;;;;;;5097261;27;20392;-74
2022/07/13 07:35:39;;;;;;;1999.90;999.90;;;;;;;;;;5096365;27;20557;-74
2022/07/13 07:38:06;;;;;;;1999.90;999.90;;;;;;;;;;5096503;27;21100;-75
2022/07/13 07:40:34;;;;;;;1999.90;999.90;;;;;;;;;;5097849;27;20640;-74
2022/07/13 07:43:02;;;;;;;1999.90;999.90;;;;;;;;;;5094229;27;20391;-74
2022/07/13 07:45:29;;;;;;;1999.90;999.90;;;;;;;;;;5095283;27;20403;-75
2022/07/13 07:47:57;;;;;;;1999.90;999.90;;;;;;;;;;5096726;27;20386;-75
2022/07/13 07:50:25;;;;;;;1999.90;999.90;;;;;;;;;;5114295;27;20403;-74
2022/07/13 07:52:54;;;;;;;1999.90;999.90;;;;;;;;;;5094679;27;20407;-74
2022/07/13 07:55:31;;;;;;;1999.90;999.90;;;;;;;;;;5096665;27;20422;-74
2022/07/13 07:57:59;;;;;;;1999.90;999.90;;;;;;;;;;5098250;27;20387;-75
2022/07/13 08:00:27;;;;;;;1999.90;999.90;;;;;;;;;;5096677;27;20632;-74
2022/07/13 08:02:57;;;;;;;1999.90;999.90;;;;;;;;;;5097087;27;20980;-74
2022/07/13 08:05:25;;;;;;;1999.90;999.90;;;;;;;;;;5098959;27;20399;-75
2022/07/13 08:07:55;;;;;;;1999.90;999.90;;;;;;;;;;5098404;27;20570;-75
2022/07/13 08:10:22;;;;;;;1999.90;999.90;;;;;;;;;;5116570;27;21011;-75
2022/07/13 08:12:55;;;;;;;1999.90;999.90;;;;;;;;;;5096844;27;20380;-74
2022/07/13 08:15:24;;;;;;;1999.90;999.90;;;;;;;;;;5075490;28;20469;-74
2022/07/13 08:17:52;;;;;;;1999.90;999.90;;;;;;;;;;5095970;27;20876;-75
2022/07/13 08:20:20;;;;;;;1999.90;999.90;;;;;;;;;;5096201;27;20395;-75
2022/07/13 08:22:49;;;;;;;1999.90;999.90;;;;;;;;;;5095478;27;20399;-75
2022/07/13 08:25:18;;;;;;;1999.90;999.90;;;;;;;;;;5095096;27;20419;-75
2022/07/13 08:27:46;;;;;;;1999.90;999.90;;;;;;;;;;5096592;27;20407;-75
2022/07/13 08:30:14;;;;;;;1999.90;999.90;;;;;;;;;;5096006;27;21348;-75
2022/07/13 08:32:42;;;;;;;1999.90;999.90;;;;;;;;;;5095156;27;20386;-74
2022/07/13 08:40:42;;;;;;;1999.90;999.90;;;;;;;;;;5095119;27;20471;-75
2022/07/13 08:43:10;;;;;;;1999.90;999.90;;;;;;;;;;5094659;27;20485;-75
2022/07/13 08:45:38;;;;;;;1999.90;999.90;;;;;;;;;;5094969;27;20490;-75
2022/07/13 08:48:11;;;;;;;1999.90;999.90;;;;;;;;;;5097381;27;20429;-74
2022/07/13 08:50:39;;;;;;;1999.90;999.90;;;;;;;;;;5095085;27;20890;-74
2022/07/13 08:53:07;;;;;;;1999.90;999.90;;;;;;;;;;5095294;27;20408;-74
2022/07/13 08:55:36;;;;;;;1999.90;999.90;;;;;;;;;;5095491;27;20469;-74
2022/07/13 08:58:05;;;;;;;1999.90;999.90;;;;;;;;;;5097472;27;20892;-75
2022/07/13 09:00:33;;;;;;;1999.90;999.90;;;;;;;;;;5095872;27;20476;-75
2022/07/13 09:03:01;;;;;;;1999.90;999.90;;;;;;;;;;5096708;27;20402;-74
2022/07/13 09:05:32;;;;;;;1999.90;999.90;;;;;;;;;;5076473;27;20403;-75
2022/07/13 09:08:03;;;;;;;1999.90;999.90;;;;;;;;;;5096747;27;20484;-75
2022/07/13 09:10:31;;;;;;;1999.90;999.90;;;;;;;;;;5096635;27;20403;-74
2022/07/13 09:12:59;;;;;;;1999.90;999.90;;;;;;;;;;5095871;27;20398;-74
2022/07/13 09:15:32;;;;;;;1999.90;999.90;;;;;;;;;;5095122;27;20427;-75
2022/07/13 09:18:00;;;;;;;1999.90;999.90;;;;;;;;;;5113310;27;20383;-75
2022/07/13 09:20:28;;;;;;;1999.90;999.90;;;;;;;;;;5095541;27;20398;-74
2022/07/13 09:23:03;;;;;;;1999.90;999.90;;;;;;;;;;5077506;28;20582;-74
2022/07/13 09:25:32;;;;;;;1999.90;999.90;;;;;;;;;;5093487;27;20455;-74
2022/07/13 09:28:02;;;;;;;1999.90;999.90;;;;;;;;;;5078939;27;20564;-74
2022/07/13 09:30:29;;;;;;;1999.90;999.90;;;;;;;;;;5094191;27;20468;-74
2022/07/13 09:32:59;;;;;;;1999.90;999.90;;;;;;;;;;5092455;27;20407;-74
2022/07/13 09:35:43;;;;;;;1999.90;999.90;;;;;;;;;;5096061;27;20411;-74
2022/07/13 09:38:26;;;;;;;1999.90;999.90;;;;;;;;;;5078531;27;20925;-74
2022/07/13 09:40:54;;;;;;;1999.90;999.90;;;;;;;;;;5093731;27;20392;-74
2022/07/13 09:46:13;;;;;;;1999.90;999.90;;;;;;;;;;5093074;27;20419;-74
2022/07/13 09:48:50;;;;;;;1999.90;999.90;;;;;;;;;;5096795;27;20521;-73
2022/07/13 09:51:26;;;;;;;1999.90;999.90;;;;;;;;;;5093892;27;20391;-74
2022/07/13 09:53:55;;;;;;;1999.90;999.90;;;;;;;;;;5094530;27;20426;-74
2022/07/13 09:56:24;;;;;;;1999.90;999.90;;;;;;;;;;5093259;27;20411;-74
2022/07/13 09:58:52;;;;;;;1999.90;999.90;;;;;;;;;;5096222;27;20415;-74
2022/07/13 10:01:20;;;;;;;1999.90;999.90;;;;;;;;;;5093105;27;21310;-74
2022/07/13 10:03:49;;;;;;;1999.90;999.90;;;;;;;;;;5095682;27;20403;-74
2022/07/13 10:06:19;;;;;;;1999.90;999.90;;;;;;;;;;5095743;27;20403;-74
2022/07/13 10:08:47;;;;;;;1999.90;999.90;;;;;;;;;;5097807;27;20391;-75
2022/07/13 10:11:15;;;;;;;1999.90;999.90;;;;;;;;;;5108616;27;20528;-74
2022/07/13 10:13:44;;;;;;;1999.90;999.90;;;;;;;;;;5082807;27;20411;-74
2022/07/13 10:16:12;;;;;;;1999.90;999.90;;;;;;;;;;5092280;27;20893;-75
2022/07/13 10:18:41;;;;;;;1999.90;999.90;;;;;;;;;;5076825;28;21226;-75
2022/07/13 10:21:15;;;;;;;1999.90;999.90;;;;;;;;;;5091152;27;20395;-78
2022/07/13 10:23:44;;;;;;;1999.90;999.90;;;;;;;;;;5089222;27;20410;-75
2022/07/13 10:26:20;;;;;;;1999.90;999.90;;;;;;;;;;5092228;27;20409;-75
2022/07/13 10:29:01;;;;;;;1999.90;999.90;;;;;;;;;;5075855;28;20387;-75
2022/07/13 10:31:31;;;;;;;1999.90;999.90;;;;;;;;;;5092491;27;20789;-75
2022/07/13 10:33:59;;;;;;;1999.90;999.90;;;;;;;;;;5094122;27;20407;-75
2022/07/13 10:36:46;;;;;;;1999.90;999.90;;;;;;;;;;5095429;27;20426;-76
2022/07/13 10:39:15;;;;;;;1999.90;999.90;;;;;;;;;;5094207;27;20883;-75
2022/07/13 10:41:55;;;;;;;1999.90;999.90;;;;;;;;;;5093214;27;20395;-75
2022/07/13 10:44:31;;;;;;;1999.90;999.90;;;;;;;;;;5094646;27;20423;-75
2022/07/13 10:46:59;;;;;;;1999.90;999.90;;;;;;;;;;5092548;27;20407;-75
2022/07/13 10:49:33;;;;;;;1999.90;999.90;;;;;;;;;;5091087;27;20480;-76
2022/07/13 10:52:20;;;;;;;1999.90;999.90;;;;;;;;;;5093004;27;20406;-75
2022/07/13 10:55:16;;;;;;;1999.90;999.90;;;;;;;;;;5098691;27;20444;-76
2022/07/13 10:57:46;;;;;;;1999.90;999.90;;;;;;;;;;5093284;27;20419;-76
2022/07/13 11:00:18;;;;;;;1999.90;999.90;;;;;;;;;;5092835;27;20383;-75
2022/07/13 11:02:49;;;;;;;1999.90;999.90;;;;;;;;;;5089951;27;20388;-75
2022/07/13 11:05:18;;;;;;;1999.90;999.90;;;;;;;;;;5088087;27;20485;-75
2022/07/13 11:07:49;;;;;;;1999.90;999.90;;;;;;;;;;5090766;27;20403;-75
2022/07/13 11:10:17;;;;;;;1999.90;999.90;;;;;;;;;;5093468;28;20387;-75
2022/07/13 11:13:03;;;;;;;1999.90;999.90;;;;;;;;;;5091917;27;20411;-75
2022/07/13 11:15:45;;;;;;;1999.90;999.90;;;;;;;;;;5085602;27;21692;-75
2022/07/13 11:18:27;;;;;;;1999.90;999.90;;;;;;;;;;5088789;27;20435;-76
2022/07/13 11:20:55;;;;;;;1999.90;999.90;;;;;;;;;;5104147;27;20464;-76
2022/07/13 11:26:13;;;;;;;1999.90;999.90;;;;;;;;;;5090264;27;20403;-75
2022/07/13 11:28:46;;;;;;;1999.90;999.90;;;;;;;;;;5071168;28;20984;-75
2022/07/13 11:31:14;;;;;;;1999.90;999.90;;;;;;;;;;5090412;27;20986;-75
2022/07/13 11:33:49;;;;;;;1999.90;999.90;;;;;;;;;;5091183;27;20394;-75
2022/07/13 11:36:21;;;;;;;1999.90;999.90;;;;;;;;;;5089854;27;20391;-76
2022/07/13 11:38:59;;;;;;;1999.90;999.90;;;;;;;;;;5111122;27;20751;-76
2022/07/13 11:41:31;;;;;;;1999.90;999.90;;;;;;;;;;5095165;27;20480;-77
2022/07/13 11:44:02;;;;;;;1999.90;999.90;;;;;;;;;;5085870;27;20411;-75
2022/07/13 11:46:33;;;;;;;1999.90;999.90;;;;;;;;;;5094283;27;20826;-75
2022/07/13 11:49:04;;;;;;;1999.90;999.90;;;;;;;;;;5088463;27;20465;-77
2022/07/13 11:51:51;;;;;;;1999.90;999.90;;;;;;;;;;5090331;27;20391;-75
2022/07/13 11:54:26;;;;;;;1999.90;999.90;;;;;;;;;;5086572;27;20372;-75
2022/07/13 11:57:05;;;;;;;1999.90;999.90;;;;;;;;;;5092394;27;20403;-76
2022/07/13 11:59:45;;;;;;;1999.90;999.90;;;;;;;;;;5107071;27;20392;-77
2022/07/13 12:02:15;;;;;;;1999.90;999.90;;;;;;;;;;5077670;27;20415;-77
2022/07/13 12:04:43;;;;;;;1999.90;999.90;;;;;;;;;;5087370;27;20401;-76
2022/07/13 12:07:12;;;;;;;1999.90;999.90;;;;;;;;;;5102984;27;20912;-76
2022/07/13 12:09:47;;;;;;;1999.90;999.90;;;;;;;;;;5091999;27;20407;-76
2022/07/13 12:12:15;;;;;;;1999.90;999.90;;;;;;;;;;5072267;27;20514;-76
2022/07/13 12:14:44;;;;;;;1999.90;999.90;;;;;;;;;;5088670;27;20423;-75
2022/07/13 12:17:12;;;;;;;1999.90;999.90;;;;;;;;;;5089502;27;20408;-76
2022/07/13 12:19:40;;;;;;;1999.90;999.90;;;;;;;;;;5092346;27;20410;-76
2022/07/13 12:22:08;;;;;;;1999.90;999.90;;;;;;;;;;5092366;27;20391;-76
2022/07/13 12:24:36;;;;;;;1999.90;999.90;;;;;;;;;;5075838;28;20406;-77
2022/07/13 12:27:04;;;;;;;1999.90;999.90;;;;;;;;;;5090531;27;20387;-76
2022/07/13 12:29:33;;;;;;;1999.90;999.90;;;;;;;;;;5085040;27;20414;-75
2022/07/13 12:32:03;;;;;;;1999.90;999.90;;;;;;;;;;5105486;27;20414;-76
2022/07/13 12:34:31;;;;;;;1999.90;999.90;;;;;;;;;;5089809;27;21595;-76
2022/07/13 12:36:58;;;;;;;1999.90;999.90;;;;;;;;;;5091376;27;20486;-76
2022/07/13 12:39:34;;;;;;;1999.90;999.90;;;;;;;;;;5087025;27;21320;-76
2022/07/13 12:42:04;;;;;;;1999.90;999.90;;;;;;;;;;5082406;27;21290;-77
2022/07/13 12:44:32;;;;;;;1999.90;999.90;;;;;;;;;;5087480;27;20415;-75
2022/07/13 12:47:01;;;;;;;1999.90;999.90;;;;;;;;;;5072181;28;21080;-76
2022/07/13 12:49:35;;;;;;;1999.90;999.90;;;;;;;;;;5091851;27;20435;-76
2022/07/13 12:52:04;;;;;;;1999.90;999.90;;;;;;;;;;5088143;27;20484;-76
2022/07/13 12:54:50;;;;;;;1999.90;999.90;;;;;;;;;;5084882;27;20391;-76
2022/07/13 12:57:18;;;;;;;1999.90;999.90;;;;;;;;;;5078167;27;20438;-77
2022/07/13 12:59:59;;;;;;;1999.90;999.90;;;;;;;;;;5095642;27;20522;-76
2022/07/13 13:02:29;;;;;;;1999.90;999.90;;;;;;;;;;5087833;27;20423;-77
2022/07/13 13:04:57;;;;;;;1999.90;999.90;;;;;;;;;;5093145;27;20380;-76
2022/07/13 13:07:25;;;;;;;1999.90;999.90;;;;;;;;;;5090040;27;20399;-76
2022/07/13 13:09:53;;;;;;;1999.90;999.90;;;;;;;;;;5090103;27;20378;-76
2022/07/13 13:12:20;;;;;;;1999.90;999.90;;;;;;;;;;5091314;27;21678;-77
2022/07/13 13:14:49;;;;;;;1999.90;999.90;;;;;;;;;;5066583;28;20537;-76
2022/07/13 13:17:23;;;;;;;1999.90;999.90;;;;;;;;;;5070803;27;20415;-76
2022/07/13 13:19:52;;;;;;;1999.90;999.90;;;;;;;;;;5096891;27;20928;-75
2022/07/13 13:22:38;;;;;;;1999.90;999.90;;;;;;;;;;5091258;27;20390;-77
2022/07/13 13:25:06;;;;;;;1999.90;999.90;;;;;;;;;;5090249;27;20407;-76
2022/07/13 13:27:34;;;;;;;1999.90;999.90;;;;;;;;;;5093459;27;20454;-76
2022/07/13 13:33:07;;;;;;;1999.90;999.90;;;;;;;;;;5090980;27;21073;-76
2022/07/13 13:35:36;;;;;;;1999.90;999.90;;;;;;;;;;5077465;28;20964;-76
2022/07/13 13:38:04;;;;;;;1999.90;999.90;;;;;;;;;;5093111;27;21004;-77
2022/07/13 13:40:32;;;;;;;1999.90;999.90;;;;;;;;;;5074718;28;20418;-76
2022/07/13 13:43:00;;;;;;;1999.90;999.90;;;;;;;;;;5094710;27;20866;-76
2022/07/13 13:45:27;;;;;;;1999.90;999.90;;;;;;;;;;5087318;27;20422;-75
2022/07/13 13:47:56;;;;;;;1999.90;999.90;;;;;;;;;;5096084;28;20864;-76
2022/07/13 13:50:24;;;;;;;1999.90;999.90;;;;;;;;;;5094363;27;20434;-76
2022/07/13 13:52:53;;;;;;;1999.90;999.90;;;;;;;;;;5091795;27;20411;-76
2022/07/13 13:55:23;;;;;;;1999.90;999.90;;;;;;;;;;5089024;27;21172;-77
2022/07/13 13:57:51;;;;;;;1999.90;999.90;;;;;;;;;;5095836;27;20416;-77
2022/07/13 14:00:19;;;;;;;1999.90;999.90;;;;;;;;;;5096472;27;20392;-76
2022/07/13 14:02:56;;;;;;;1999.90;999.90;;;;;;;;;;5098849;27;20425;-77
2022/07/13 14:05:24;;;;;;;1999.90;999.90;;;;;;;;;;5082859;27;20403;-76
2022/07/13 14:07:54;;;;;;;1999.90;999.90;;;;;;;;;;5099424;27;20461;-77
2022/07/13 14:10:22;;;;;;;1999.90;999.90;;;;;;;;;;5098289;27;20386;-77